createdAt,value
2018-10-09T00:00:05.155Z,4.40
2018-10-09T00:02:38.572Z,4.40
2018-10-09T00:05:13.620Z,3.67
2018-10-09T00:07:46.736Z,4.27
2018-10-09T00:10:21.244Z,4.53
2018-10-09T00:12:54.335Z,3.47
2018-10-09T00:15:27.739Z,3.83
2018-10-09T00:18:00.942Z,4.00
2018-10-09T00:20:34.537Z,3.83
2018-10-09T00:23:08.125Z,4.30
2018-10-09T00:25:41.394Z,4.03
2018-10-09T00:28:14.890Z,3.53
2018-10-09T00:30:49.008Z,3.87
2018-10-09T00:33:22.165Z,3.80
2018-10-09T00:35:55.916Z,3.33
2018-10-09T00:38:30.469Z,3.37
2018-10-09T00:41:03.717Z,3.93
2018-10-09T00:43:37.417Z,3.60
2018-10-09T00:46:10.726Z,4.00
2018-10-09T00:48:44.321Z,4.03
2018-10-09T00:51:17.752Z,4.13
2018-10-09T00:53:51.128Z,4.07
2018-10-09T00:56:24.549Z,3.37
2018-10-09T00:58:57.968Z,3.90
2018-10-09T01:01:31.059Z,3.97
2018-10-09T01:04:04.346Z,4.10
2018-10-09T01:06:37.480Z,4.27
2018-10-09T01:09:14.128Z,4.10
2018-10-09T01:11:47.715Z,4.53
2018-10-09T01:14:22.203Z,4.20
2018-10-09T01:16:56.311Z,4.37
2018-10-09T01:19:31.686Z,3.90
2018-10-09T01:22:05.148Z,4.30
2018-10-09T01:24:39.461Z,4.90
2018-10-09T01:27:13.780Z,4.90
2018-10-09T01:29:49.750Z,4.97
2018-10-09T01:32:26.267Z,5.00
2018-10-09T01:34:59.872Z,4.80
2018-10-09T01:37:33.334Z,4.60
2018-10-09T01:40:06.893Z,4.27
2018-10-09T01:42:40.233Z,3.90
2018-10-09T01:45:13.837Z,4.00
2018-10-09T01:47:46.748Z,4.17
2018-10-09T01:50:20.314Z,3.80
2018-10-09T01:52:55.260Z,3.77
2018-10-09T01:55:28.702Z,4.40
2018-10-09T01:58:03.489Z,3.70
2018-10-09T02:00:37.098Z,3.73
2018-10-09T02:03:11.664Z,3.57
2018-10-09T02:05:45.734Z,3.57
2018-10-09T02:08:19.221Z,3.90
2018-10-09T02:10:54.305Z,3.87
2018-10-09T02:13:29.730Z,4.43
2018-10-09T02:16:03.736Z,4.30
2018-10-09T02:18:37.128Z,4.70
2018-10-09T02:21:12.109Z,4.07
2018-10-09T02:23:46.401Z,4.57
2018-10-09T02:26:19.785Z,4.80
2018-10-09T02:28:53.087Z,4.43
2018-10-09T02:31:26.476Z,4.93
2018-10-09T02:33:59.643Z,5.10
2018-10-09T02:36:33.819Z,4.90
2018-10-09T02:39:11.296Z,4.47
2018-10-09T02:41:44.380Z,4.27
2018-10-09T02:44:19.477Z,4.23
2018-10-09T02:46:52.765Z,4.70
2018-10-09T02:49:25.978Z,4.57
2018-10-09T02:51:59.302Z,4.50
2018-10-09T02:54:45.106Z,5.17
2018-10-09T02:57:18.336Z,4.50
2018-10-09T02:59:52.846Z,6.03
2018-10-09T03:02:26.269Z,6.53
2018-10-09T03:04:59.263Z,6.70
2018-10-09T03:07:33.182Z,6.77
2018-10-09T03:10:06.552Z,6.80
2018-10-09T03:12:39.832Z,7.87
2018-10-09T03:15:12.969Z,7.47
2018-10-09T03:17:46.389Z,7.87
2018-10-09T03:20:19.674Z,7.90
2018-10-09T03:22:52.976Z,8.77
2018-10-09T03:25:26.069Z,8.40
2018-10-09T03:28:00.681Z,8.50
2018-10-09T03:30:34.460Z,9.40
2018-10-09T03:33:07.821Z,8.67
2018-10-09T03:35:49.503Z,8.77
2018-10-09T03:38:24.152Z,8.43
2018-10-09T03:41:03.740Z,8.73
2018-10-09T03:43:39.757Z,8.93
2018-10-09T03:46:12.994Z,7.90
2018-10-09T03:48:48.004Z,8.40
2018-10-09T03:51:21.159Z,8.83
2018-10-09T03:53:55.615Z,7.87
2018-10-09T03:56:38.764Z,8.70
2018-10-09T03:59:20.187Z,8.03
2018-10-09T04:01:55.608Z,8.37
2018-10-09T04:04:34.066Z,8.30
2018-10-09T04:07:14.538Z,7.60
2018-10-09T04:10:00.292Z,7.03
2018-10-09T04:12:37.723Z,8.07
2018-10-09T04:15:12.100Z,7.67
2018-10-09T04:17:57.949Z,7.27
2018-10-09T04:20:40.077Z,7.80
2018-10-09T04:23:14.137Z,7.37
2018-10-09T04:25:47.604Z,6.70
2018-10-09T04:28:20.889Z,6.87
2018-10-09T04:30:54.382Z,7.37
2018-10-09T04:33:27.867Z,7.10
2018-10-09T04:36:01.156Z,7.63
2018-10-09T04:38:34.880Z,7.37
2018-10-09T04:41:08.922Z,7.53
2018-10-09T04:43:42.588Z,6.53
2018-10-09T04:46:16.040Z,6.13
2018-10-09T04:48:49.624Z,6.43
2018-10-09T04:51:23.212Z,7.33
2018-10-09T04:53:56.817Z,6.73
2018-10-09T04:56:32.776Z,6.50
2018-10-09T04:59:06.666Z,5.77
2018-10-09T05:01:39.929Z,5.90
2018-10-09T05:04:13.305Z,6.30
2018-10-09T05:06:46.524Z,6.33
2018-10-09T05:09:19.903Z,6.27
2018-10-09T05:11:53.164Z,5.63
2018-10-09T05:14:26.499Z,6.03
2018-10-09T05:17:00.280Z,6.40
2018-10-09T05:19:33.440Z,6.43
2018-10-09T05:22:07.030Z,7.17
2018-10-09T05:24:40.292Z,7.07
2018-10-09T05:27:14.035Z,6.90
2018-10-09T05:29:49.689Z,8.63
2018-10-09T05:32:22.932Z,8.37
2018-10-09T05:34:56.317Z,6.43
2018-10-09T05:37:29.754Z,6.03
2018-10-09T05:40:03.302Z,6.23
2018-10-09T05:42:36.817Z,6.30
2018-10-09T05:45:10.641Z,5.80
2018-10-09T05:47:44.292Z,6.80
2018-10-09T05:50:30.003Z,5.97
2018-10-09T05:53:03.445Z,7.10
2018-10-09T05:55:37.572Z,6.20
2018-10-09T05:58:11.895Z,6.60
2018-10-09T06:00:46.895Z,6.17
2018-10-09T06:03:20.346Z,6.30
2018-10-09T06:06:00.230Z,7.23
2018-10-09T06:08:37.884Z,5.83
2018-10-09T06:11:20.998Z,5.60
2018-10-09T06:13:54.547Z,5.53
2018-10-09T06:16:28.040Z,6.30
2018-10-09T06:19:01.573Z,5.87
2018-10-09T06:21:35.347Z,6.80
2018-10-09T06:24:23.156Z,5.40
2018-10-09T06:27:02.900Z,5.93
2018-10-09T06:29:37.174Z,5.60
2018-10-09T06:32:20.251Z,6.67
2018-10-09T06:35:03.658Z,6.37
2018-10-09T06:37:37.440Z,6.67
2018-10-09T06:40:11.060Z,7.37
2018-10-09T06:42:59.171Z,6.37
2018-10-09T06:45:32.742Z,5.80
2018-10-09T06:48:14.398Z,5.80
2018-10-09T06:50:48.121Z,6.90
2018-10-09T06:53:21.787Z,6.03
2018-10-09T06:55:55.433Z,5.93
2018-10-09T06:58:29.035Z,6.63
2018-10-09T07:01:02.485Z,6.43
2018-10-09T07:03:36.185Z,6.90
2018-10-09T07:06:09.790Z,7.00
2018-10-09T07:08:43.327Z,7.03
2018-10-09T07:11:16.784Z,7.23
2018-10-09T07:13:51.620Z,7.27
2018-10-09T07:16:25.456Z,7.70
2018-10-09T07:19:03.532Z,7.57
2018-10-09T07:21:37.113Z,7.63
2018-10-09T07:24:10.541Z,8.37
2018-10-09T07:26:51.107Z,8.60
2018-10-09T07:29:29.076Z,8.30
2018-10-09T07:32:02.845Z,7.80
2018-10-09T07:34:36.494Z,8.00
2018-10-09T07:37:10.232Z,7.90
2018-10-09T07:39:43.881Z,7.30
2018-10-09T07:42:17.420Z,7.47
2018-10-09T07:44:51.016Z,6.57
2018-10-09T14:35:05.719Z,1.70
2018-10-09T14:37:40.481Z,1.70
2018-10-09T14:40:13.474Z,1.70
2018-10-09T14:42:47.085Z,1.60
2018-10-09T14:45:20.852Z,1.80
2018-10-09T14:47:54.258Z,1.70
2018-10-09T14:50:28.054Z,1.80
2018-10-09T14:53:01.596Z,1.60
2018-10-09T14:55:34.815Z,2.10
2018-10-09T14:58:08.016Z,1.73
2018-10-09T15:00:41.443Z,2.40
2018-10-09T15:03:14.856Z,1.70
2018-10-09T15:05:48.861Z,1.37
2018-10-09T15:08:22.549Z,1.60
2018-10-09T15:10:55.868Z,1.60
2018-10-09T15:13:29.120Z,1.80
2018-10-09T15:16:02.686Z,1.90
2018-10-09T15:18:36.074Z,2.40
2018-10-09T15:21:09.902Z,2.00
2018-10-09T15:23:44.248Z,2.50
2018-10-09T15:26:17.425Z,2.30
2018-10-09T15:28:51.105Z,2.53
2018-10-09T15:31:24.097Z,2.70
2018-10-09T15:33:57.491Z,2.73
2018-10-09T15:36:30.612Z,2.97
2018-10-09T15:39:04.085Z,3.43
2018-10-09T15:41:38.740Z,3.43
2018-10-09T15:44:12.315Z,4.00
2018-10-09T15:46:45.893Z,4.10
2018-10-09T15:49:20.015Z,3.80
2018-10-09T15:51:53.282Z,4.03
2018-10-09T15:54:27.417Z,4.77
2018-10-09T15:57:01.703Z,4.20
2018-10-09T15:59:35.992Z,4.90
2018-10-09T16:02:09.883Z,5.00
2018-10-09T16:04:43.294Z,4.57
2018-10-09T16:07:17.965Z,3.97
2018-10-09T16:09:50.945Z,5.00
2018-10-09T16:12:24.098Z,5.27
2018-10-09T16:14:57.169Z,5.27
2018-10-09T16:17:30.608Z,5.43
2018-10-09T16:20:03.868Z,4.67
2018-10-09T16:22:37.400Z,5.37
2018-10-09T16:25:10.820Z,5.80
2018-10-09T16:27:45.080Z,6.00
2018-10-09T16:30:18.291Z,6.13
2018-10-09T16:32:52.494Z,6.30
2018-10-09T16:35:26.324Z,6.07
2018-10-09T16:37:59.782Z,6.13
2018-10-09T16:40:33.047Z,5.70
2018-10-09T16:43:06.748Z,6.20
2018-10-09T16:45:40.010Z,5.27
2018-10-09T16:48:13.182Z,6.13
2018-10-09T16:50:46.267Z,5.80
2018-10-09T16:53:19.655Z,5.43
2018-10-09T16:55:52.765Z,4.50
2018-10-09T16:58:25.984Z,5.03
2018-10-09T17:00:59.593Z,5.20
2018-10-09T17:03:33.419Z,5.57
2018-10-09T17:06:07.323Z,5.00
2018-10-09T17:08:41.008Z,5.30
2018-10-09T17:11:14.455Z,4.93
2018-10-09T17:13:48.343Z,5.23
2018-10-09T17:16:21.723Z,5.10
2018-10-09T17:18:55.022Z,4.63
2018-10-09T17:21:28.266Z,5.07
2018-10-09T17:24:01.924Z,5.20
2018-10-09T17:26:35.375Z,5.37
2018-10-09T17:29:09.167Z,4.13
2018-10-09T17:31:42.512Z,4.83
2018-10-09T17:34:16.735Z,4.77
2018-10-09T17:36:50.566Z,4.80
2018-10-09T17:39:24.164Z,4.53
2018-10-09T17:41:57.824Z,5.27
2018-10-09T17:44:32.452Z,5.00
2018-10-09T17:47:10.860Z,4.60
2018-10-09T17:49:44.911Z,4.53
2018-10-09T17:52:18.069Z,4.30
2018-10-09T17:54:51.961Z,4.50
2018-10-09T17:57:25.202Z,4.33
2018-10-09T17:59:58.471Z,4.40
2018-10-09T18:02:31.479Z,4.27
2018-10-09T18:05:06.308Z,3.73
2018-10-09T18:07:41.664Z,3.70
2018-10-09T18:10:16.528Z,3.90
2018-10-09T18:12:49.758Z,4.00
2018-10-09T18:15:23.699Z,4.10
2018-10-09T18:17:56.895Z,3.80
2018-10-09T18:20:29.948Z,3.93
2018-10-09T18:23:03.233Z,3.63
2018-10-09T18:25:36.420Z,4.00
2018-10-09T18:28:10.433Z,4.37
2018-10-09T18:30:44.265Z,4.47
2018-10-09T18:33:17.500Z,4.60
2018-10-09T18:35:50.979Z,4.93
2018-10-09T18:38:24.478Z,4.90
2018-10-09T18:40:58.419Z,4.53
2018-10-09T18:43:31.765Z,4.07
2018-10-09T18:46:05.115Z,4.20
2018-10-09T18:48:38.387Z,4.53
2018-10-09T18:51:11.680Z,5.37
2018-10-09T18:53:45.600Z,3.87
2018-10-09T18:56:18.988Z,4.57
2018-10-09T18:58:52.275Z,4.80
2018-10-09T19:01:26.529Z,5.30
2018-10-09T19:04:01.508Z,5.50
2018-10-09T19:06:34.853Z,4.87
2018-10-09T19:09:10.201Z,4.77
2018-10-09T19:11:44.359Z,4.93
2018-10-09T19:14:17.674Z,4.60
2018-10-09T19:16:50.922Z,4.83
2018-10-09T19:19:26.275Z,4.77
2018-10-09T19:21:59.619Z,5.13
2018-10-09T19:24:38.278Z,5.10
2018-10-09T19:27:12.014Z,5.17
2018-10-09T19:29:45.786Z,4.67
2018-10-09T19:32:18.733Z,5.10
2018-10-09T19:34:52.192Z,5.40
2018-10-09T19:37:25.984Z,6.83
2018-10-09T19:39:59.504Z,5.90
2018-10-09T19:42:32.500Z,5.60
2018-10-09T19:45:06.087Z,5.80
2018-10-09T19:47:39.527Z,4.83
2018-10-09T19:50:18.987Z,4.83
2018-10-09T19:52:52.604Z,4.97
2018-10-09T19:55:25.945Z,5.50
2018-10-09T19:58:00.083Z,5.50
2018-10-09T20:00:33.467Z,5.03
2018-10-09T20:03:06.738Z,5.43
2018-10-09T20:05:41.823Z,5.40
2018-10-09T20:08:15.599Z,5.10
2018-10-09T20:10:48.847Z,4.57
2018-10-09T20:13:22.110Z,5.13
2018-10-09T20:15:55.544Z,4.47
2018-10-09T20:18:28.683Z,4.80
2018-10-09T20:21:01.952Z,3.70
2018-10-09T20:23:35.382Z,3.80
2018-10-09T20:26:08.755Z,4.43
2018-10-09T20:28:42.374Z,4.00
2018-10-09T20:31:17.119Z,4.40
2018-10-09T20:33:50.403Z,4.50
2018-10-09T20:36:24.657Z,4.87
2018-10-09T20:38:57.953Z,4.77
2018-10-09T20:41:31.225Z,4.63
2018-10-09T20:44:04.438Z,4.23
2018-10-09T20:46:37.628Z,4.00
2018-10-09T20:49:12.460Z,4.77
2018-10-09T20:51:45.560Z,4.57
2018-10-09T20:54:24.967Z,4.60
2018-10-09T20:56:58.211Z,4.77
2018-10-09T20:59:34.513Z,4.77
2018-10-09T21:02:07.972Z,3.67
2018-10-09T21:04:41.241Z,4.40
2018-10-09T21:07:15.171Z,4.33
2018-10-09T21:09:52.717Z,4.00
2018-10-09T21:12:30.313Z,4.23
2018-10-09T21:15:05.108Z,4.07
2018-10-09T21:17:39.613Z,3.87
2018-10-09T21:20:13.396Z,4.33
2018-10-09T21:22:47.655Z,4.13
2018-10-09T21:25:21.102Z,4.47
2018-10-09T21:27:54.317Z,4.83
2018-10-09T21:30:27.596Z,4.73
2018-10-09T21:33:01.242Z,4.70
2018-10-09T21:35:35.313Z,4.50
2018-10-09T21:38:08.718Z,5.00
2018-10-09T21:40:41.970Z,5.17
2018-10-09T21:43:16.505Z,4.90
2018-10-09T21:45:50.158Z,4.97
2018-10-09T21:48:23.402Z,4.57
2018-10-09T21:50:56.602Z,4.57
2018-10-09T21:53:29.703Z,4.90
2018-10-09T21:56:02.880Z,4.97
2018-10-09T21:58:36.123Z,5.47
2018-10-09T22:01:13.379Z,5.03
2018-10-09T22:03:46.740Z,4.97
2018-10-09T22:06:19.973Z,4.57
2018-10-09T22:08:54.026Z,5.17
2018-10-09T22:11:27.709Z,4.87
2018-10-09T22:14:00.983Z,4.70
2018-10-09T22:16:34.398Z,4.60
2018-10-09T22:19:07.711Z,5.10
2018-10-09T22:21:40.870Z,5.23
2018-10-09T22:24:15.018Z,5.10
2018-10-09T22:26:49.374Z,5.23
2018-10-09T22:29:24.320Z,5.10
2018-10-09T22:31:58.261Z,5.17
2018-10-09T22:34:31.629Z,5.23
2018-10-09T22:37:04.897Z,4.70
2018-10-09T22:39:38.149Z,5.07
2018-10-09T22:42:11.552Z,5.23
2018-10-09T22:44:44.777Z,5.50
2018-10-09T22:47:18.017Z,4.30
2018-10-09T22:49:51.322Z,5.13
2018-10-09T22:52:25.561Z,5.07
2018-10-09T22:54:59.179Z,5.47
2018-10-09T22:57:33.226Z,5.10
2018-10-09T23:00:06.614Z,4.00
2018-10-09T23:02:41.008Z,4.80
2018-10-09T23:05:14.389Z,4.50
2018-10-09T23:07:47.801Z,3.77
2018-10-09T23:10:20.974Z,3.07
2018-10-09T23:12:54.360Z,2.97
2018-10-09T23:15:27.565Z,1.80
2018-10-09T23:18:00.902Z,2.07
2018-10-09T23:20:34.374Z,1.80
2018-10-09T23:23:07.076Z,2.07
2018-10-09T23:25:40.217Z,2.17
2018-10-09T23:28:17.898Z,2.30
2018-10-09T23:30:51.264Z,2.07
2018-10-09T23:33:25.595Z,1.90
2018-10-09T23:35:59.588Z,1.90
2018-10-09T23:38:32.859Z,1.90
2018-10-09T23:41:06.154Z,1.80
2018-10-09T23:43:39.974Z,2.40
2018-10-09T23:46:12.879Z,1.77
2018-10-09T23:48:46.035Z,1.70
2018-10-09T23:51:18.860Z,1.97
2018-10-09T23:53:51.858Z,2.17
2018-10-09T23:56:25.342Z,2.60
2018-10-09T23:58:59.414Z,2.67
